Time;durP1;ratioP1;P1;durP2;ratioP2;P2;SDS_P1;SDS_P2;PMS_P1;PMS_P2;Temp;Humidity;BMP_temperature;BMP_pressure;BME280_temperature;BME280_humidity;BME280_pressure;Samples;Min_cycle;Max_cycle;Signal;HPM_P1;HPM_P2
2023/08/16 00:00:49;;;;;;;11.20;10.70;;;;;;;;;;5058349;28;20025;-63
2023/08/16 00:03:14;;;;;;;11.30;10.80;;;;;;;;;;5054392;28;20559;-64
2023/08/16 00:05:41;;;;;;;11.90;11.40;;;;;;;;;;5043696;28;20026;-62
2023/08/16 00:08:06;;;;;;;11.55;11.05;;;;;;;;;;5038102;28;20037;-64
2023/08/16 00:10:32;;;;;;;11.32;10.82;;;;;;;;;;5045645;28;20373;-63
2023/08/16 00:12:57;;;;;;;11.40;10.90;;;;;;;;;;5051342;28;20368;-63
2023/08/16 00:15:23;;;;;;;11.48;10.98;;;;;;;;;;5052687;28;20450;-63
2023/08/16 00:17:48;;;;;;;11.73;11.23;;;;;;;;;;5051665;28;20081;-63
2023/08/16 00:20:14;;;;;;;11.23;10.73;;;;;;;;;;5050577;28;20025;-63
2023/08/16 00:22:39;;;;;;;11.35;10.85;;;;;;;;;;5053202;28;20021;-63
2023/08/16 00:25:04;;;;;;;11.45;10.95;;;;;;;;;;5050944;28;20479;-63
2023/08/16 00:27:30;;;;;;;11.23;10.73;;;;;;;;;;5054236;28;20073;-63
2023/08/16 00:29:55;;;;;;;11.23;10.73;;;;;;;;;;5054324;28;20100;-63
2023/08/16 00:32:21;;;;;;;11.25;10.75;;;;;;;;;;5053398;28;20175;-63
2023/08/16 00:34:46;;;;;;;11.38;10.88;;;;;;;;;;5052066;28;20048;-63
2023/08/16 00:37:11;;;;;;;11.38;10.88;;;;;;;;;;5053004;28;20017;-63
2023/08/16 00:39:38;;;;;;;11.50;11.00;;;;;;;;;;5053195;28;20029;-64
2023/08/16 00:42:04;;;;;;;11.60;11.10;;;;;;;;;;5054385;28;20495;-64
2023/08/16 00:44:29;;;;;;;11.23;10.73;;;;;;;;;;5050150;28;20453;-64
2023/08/16 00:46:55;;;;;;;11.18;10.68;;;;;;;;;;5034945;28;20025;-64
2023/08/16 00:49:20;;;;;;;10.98;10.48;;;;;;;;;;5049719;28;20114;-63
2023/08/16 00:51:46;;;;;;;11.35;10.85;;;;;;;;;;5051866;28;20031;-64
2023/08/16 00:54:11;;;;;;;11.70;11.20;;;;;;;;;;5052324;28;20463;-63
2023/08/16 00:56:37;;;;;;;11.13;10.63;;;;;;;;;;5052154;28;20392;-64
2023/08/16 00:59:03;;;;;;;11.60;11.10;;;;;;;;;;5048983;28;20058;-63
2023/08/16 01:01:28;;;;;;;11.27;10.77;;;;;;;;;;5052644;28;20029;-63
2023/08/16 01:03:53;;;;;;;11.57;11.07;;;;;;;;;;5060985;28;20075;-63
2023/08/16 01:06:19;;;;;;;11.35;10.85;;;;;;;;;;5070217;28;20027;-64
2023/08/16 01:08:44;;;;;;;11.23;10.73;;;;;;;;;;5071806;28;20027;-65
2023/08/16 01:11:16;;;;;;;11.45;10.95;;;;;;;;;;5076369;28;20079;-64
2023/08/16 01:13:53;;;;;;;11.30;10.80;;;;;;;;;;5069955;28;20078;-63
2023/08/16 01:16:20;;;;;;;11.48;10.98;;;;;;;;;;5069455;28;20025;-63
2023/08/16 01:18:45;;;;;;;11.27;10.77;;;;;;;;;;5071884;28;20074;-63
2023/08/16 01:21:12;;;;;;;11.40;10.90;;;;;;;;;;5070889;28;20423;-64
2023/08/16 01:23:46;;;;;;;11.57;11.07;;;;;;;;;;5071776;28;20028;-64
2023/08/16 01:26:11;;;;;;;;;;;;;;;;;;5066904;28;20025;-62
2023/08/16 01:28:38;;;;;;;11.43;10.93;;;;;;;;;;5071913;28;19995;-63
2023/08/16 01:31:04;;;;;;;11.63;11.13;;;;;;;;;;5073023;28;20048;-63
2023/08/16 01:33:29;;;;;;;11.32;10.82;;;;;;;;;;5071816;28;20075;-63
2023/08/16 01:35:55;;;;;;;11.43;10.93;;;;;;;;;;5069406;28;20024;-63
2023/08/16 01:38:21;;;;;;;11.15;10.65;;;;;;;;;;5073244;28;20020;-63
2023/08/16 01:40:49;;;;;;;11.23;10.73;;;;;;;;;;5072864;28;20048;-63
2023/08/16 01:43:15;;;;;;;11.30;10.80;;;;;;;;;;5066793;28;20021;-63
2023/08/16 01:45:41;;;;;;;11.15;10.65;;;;;;;;;;5068859;28;20476;-63
2023/08/16 01:48:07;;;;;;;11.50;11.00;;;;;;;;;;5070942;28;20044;-63
2023/08/16 01:50:32;;;;;;;11.18;10.68;;;;;;;;;;5071841;28;20028;-63
2023/08/16 01:52:58;;;;;;;11.25;10.75;;;;;;;;;;5073538;28;20028;-63
2023/08/16 01:55:24;;;;;;;11.45;10.95;;;;;;;;;;5077265;28;20062;-64
2023/08/16 01:57:49;;;;;;;11.85;11.35;;;;;;;;;;5073004;28;20084;-64
2023/08/16 02:00:15;;;;;;;11.95;11.45;;;;;;;;;;5069958;28;20656;-64
2023/08/16 02:02:41;;;;;;;11.45;10.95;;;;;;;;;;5071104;28;20021;-63
2023/08/16 02:05:06;;;;;;;11.27;10.77;;;;;;;;;;5073308;28;20023;-63
2023/08/16 02:07:31;;;;;;;11.38;10.88;;;;;;;;;;5071091;28;20020;-63
2023/08/16 02:09:57;;;;;;;11.40;10.90;;;;;;;;;;5071656;28;20023;-63
2023/08/16 02:12:22;;;;;;;11.20;10.70;;;;;;;;;;5071057;28;20012;-63
2023/08/16 02:14:47;;;;;;;11.35;10.85;;;;;;;;;;5052996;28;20048;-63
2023/08/16 02:17:13;;;;;;;11.55;11.05;;;;;;;;;;5068522;28;20399;-64
2023/08/16 02:19:38;;;;;;;11.30;10.80;;;;;;;;;;5070713;28;20454;-63
2023/08/16 02:22:03;;;;;;;11.50;11.00;;;;;;;;;;5073957;28;20464;-63
2023/08/16 02:24:29;;;;;;;11.27;10.77;;;;;;;;;;5069421;28;20024;-64
2023/08/16 02:26:54;;;;;;;11.70;11.20;;;;;;;;;;5067988;28;20027;-63
2023/08/16 02:29:19;;;;;;;11.05;10.55;;;;;;;;;;5070821;28;20365;-63
2023/08/16 02:31:44;;;;;;;11.30;10.80;;;;;;;;;;5068390;28;20030;-64
2023/08/16 02:34:10;;;;;;;11.73;11.23;;;;;;;;;;5070784;28;20078;-64
2023/08/16 02:36:35;;;;;;;11.33;10.83;;;;;;;;;;5051454;28;20111;-63
2023/08/16 02:39:00;;;;;;;11.57;11.07;;;;;;;;;;5070451;28;20285;-63
2023/08/16 02:41:26;;;;;;;11.30;10.80;;;;;;;;;;5068025;28;20031;-63
2023/08/16 02:43:51;;;;;;;11.50;11.00;;;;;;;;;;5070694;28;20021;-64
2023/08/16 02:46:16;;;;;;;11.48;10.98;;;;;;;;;;5070454;28;20047;-64
2023/08/16 02:48:42;;;;;;;11.38;10.88;;;;;;;;;;5069838;28;20020;-63
2023/08/16 02:51:07;;;;;;;11.50;11.00;;;;;;;;;;5067020;28;20066;-63
2023/08/16 02:53:32;;;;;;;11.40;10.90;;;;;;;;;;5070628;28;20257;-63
2023/08/16 02:55:58;;;;;;;11.32;10.82;;;;;;;;;;5069657;28;20020;-63
2023/08/16 02:58:23;;;;;;;11.70;11.20;;;;;;;;;;5071017;28;20563;-63
2023/08/16 03:00:50;;;;;;;11.13;10.63;;;;;;;;;;5075583;28;20013;-63
2023/08/16 03:03:16;;;;;;;11.60;11.10;;;;;;;;;;5076883;28;21251;-65
2023/08/16 03:05:41;;;;;;;11.70;11.20;;;;;;;;;;5072380;28;20036;-63
2023/08/16 03:08:06;;;;;;;11.50;11.00;;;;;;;;;;5075807;28;20579;-65
2023/08/16 03:10:31;;;;;;;11.52;11.02;;;;;;;;;;5075894;28;20028;-62
2023/08/16 03:12:57;;;;;;;11.88;11.38;;;;;;;;;;5074574;28;20028;-64
2023/08/16 03:15:23;;;;;;;11.05;10.55;;;;;;;;;;5074640;28;20058;-64
2023/08/16 03:17:48;;;;;;;11.60;11.10;;;;;;;;;;5075295;28;20021;-64
2023/08/16 03:20:13;;;;;;;11.48;10.98;;;;;;;;;;5075855;28;20599;-63
2023/08/16 03:22:39;;;;;;;11.20;10.70;;;;;;;;;;5072819;28;20016;-63
2023/08/16 03:25:04;;;;;;;11.43;10.93;;;;;;;;;;5069034;28;20090;-63
2023/08/16 03:27:29;;;;;;;11.30;10.80;;;;;;;;;;5070011;28;20429;-62
2023/08/16 03:29:55;;;;;;;11.52;11.02;;;;;;;;;;5069347;28;20021;-62
2023/08/16 03:32:20;;;;;;;11.50;11.00;;;;;;;;;;5068063;28;20012;-64
2023/08/16 03:34:45;;;;;;;11.40;10.90;;;;;;;;;;5070962;28;20032;-62
2023/08/16 03:37:10;;;;;;;11.48;10.98;;;;;;;;;;5067790;28;20384;-64
2023/08/16 03:39:36;;;;;;;11.65;11.15;;;;;;;;;;5069687;28;20031;-64
2023/08/16 03:42:01;;;;;;;11.85;11.35;;;;;;;;;;5067668;28;20017;-64
2023/08/16 03:44:26;;;;;;;11.43;10.93;;;;;;;;;;5067030;28;20046;-64
2023/08/16 03:46:52;;;;;;;11.57;11.07;;;;;;;;;;5073739;28;20377;-64
2023/08/16 03:49:17;;;;;;;11.77;11.27;;;;;;;;;;5072714;28;20253;-64
2023/08/16 03:51:42;;;;;;;11.60;11.10;;;;;;;;;;5073686;28;20020;-63
2023/08/16 03:54:08;;;;;;;11.65;11.15;;;;;;;;;;5074593;28;20372;-63
2023/08/16 03:56:33;;;;;;;11.93;11.43;;;;;;;;;;5072833;28;20040;-63
2023/08/16 03:58:58;;;;;;;11.80;11.30;;;;;;;;;;5071428;28;20713;-63
2023/08/16 04:01:24;;;;;;;11.23;10.73;;;;;;;;;;5070021;28;20178;-62
2023/08/16 04:03:49;;;;;;;11.60;11.10;;;;;;;;;;5076074;28;20041;-63
2023/08/16 04:06:15;;;;;;;11.60;11.10;;;;;;;;;;5071884;28;20021;-65
2023/08/16 04:08:41;;;;;;;12.35;11.75;;;;;;;;;;5072852;28;20029;-62
2023/08/16 04:11:06;;;;;;;11.88;11.38;;;;;;;;;;5070864;28;20399;-63
2023/08/16 04:13:32;;;;;;;11.55;11.05;;;;;;;;;;5070845;28;20024;-64
2023/08/16 04:15:57;;;;;;;12.65;12.05;;;;;;;;;;5070893;28;20036;-62
2023/08/16 04:18:22;;;;;;;11.40;10.90;;;;;;;;;;5076040;28;20021;-63
2023/08/16 04:20:48;;;;;;;11.50;11.00;;;;;;;;;;5054572;28;20021;-64
2023/08/16 04:23:13;;;;;;;11.75;11.25;;;;;;;;;;5072535;28;20027;-63
2023/08/16 04:25:39;;;;;;;11.48;10.98;;;;;;;;;;5070733;28;20112;-64
2023/08/16 04:28:04;;;;;;;11.32;10.82;;;;;;;;;;5072156;28;20025;-64
2023/08/16 04:30:30;;;;;;;11.63;11.13;;;;;;;;;;5075764;28;20094;-64
2023/08/16 04:32:55;;;;;;;11.60;11.10;;;;;;;;;;5070917;28;20102;-65
2023/08/16 04:35:20;;;;;;;11.55;11.05;;;;;;;;;;5071751;28;20016;-64
2023/08/16 04:37:45;;;;;;;11.70;11.20;;;;;;;;;;5074868;28;20624;-64
2023/08/16 04:40:11;;;;;;;11.73;11.23;;;;;;;;;;5073491;28;20052;-64
2023/08/16 04:42:36;;;;;;;11.82;11.32;;;;;;;;;;5071512;28;20453;-64
2023/08/16 04:45:03;;;;;;;11.52;11.02;;;;;;;;;;5073177;28;20434;-64
2023/08/16 04:47:29;;;;;;;11.35;10.85;;;;;;;;;;5075748;28;20021;-64
2023/08/16 04:49:54;;;;;;;11.60;11.10;;;;;;;;;;5071110;28;20365;-65
2023/08/16 04:52:19;;;;;;;11.07;10.57;;;;;;;;;;5071923;28;20032;-64
2023/08/16 04:54:44;;;;;;;11.50;11.00;;;;;;;;;;5072416;28;20024;-64
2023/08/16 04:57:10;;;;;;;11.80;11.30;;;;;;;;;;5070259;28;20460;-64
2023/08/16 04:59:35;;;;;;;11.15;10.65;;;;;;;;;;5071624;28;20033;-64
2023/08/16 05:02:00;;;;;;;11.68;11.18;;;;;;;;;;5072847;28;20020;-64
2023/08/16 05:04:26;;;;;;;11.25;10.75;;;;;;;;;;5053947;28;20577;-66
2023/08/16 05:06:51;;;;;;;11.70;11.20;;;;;;;;;;5052480;28;20012;-65
2023/08/16 05:09:16;;;;;;;11.57;11.07;;;;;;;;;;5071647;28;20256;-64
2023/08/16 05:11:43;;;;;;;11.32;10.82;;;;;;;;;;5054174;28;20047;-64
2023/08/16 05:14:08;;;;;;;11.63;11.13;;;;;;;;;;5071806;28;20087;-63
2023/08/16 05:16:33;;;;;;;11.70;11.20;;;;;;;;;;5071874;28;20024;-63
2023/08/16 05:18:59;;;;;;;11.60;11.10;;;;;;;;;;5069291;28;20022;-63
2023/08/16 05:21:24;;;;;;;11.82;11.32;;;;;;;;;;5055997;28;20028;-64
2023/08/16 05:23:49;;;;;;;11.80;11.30;;;;;;;;;;5070499;28;20099;-64
2023/08/16 05:26:15;;;;;;;11.60;11.10;;;;;;;;;;5069261;28;20032;-65
2023/08/16 05:28:40;;;;;;;11.60;11.10;;;;;;;;;;5068954;28;20028;-64
2023/08/16 05:31:07;;;;;;;12.00;11.50;;;;;;;;;;5051020;28;20043;-63
2023/08/16 05:33:32;;;;;;;11.68;11.18;;;;;;;;;;5071701;28;20052;-65
2023/08/16 05:35:57;;;;;;;11.77;11.27;;;;;;;;;;5070812;28;20506;-64
2023/08/16 05:38:23;;;;;;;11.85;11.35;;;;;;;;;;5070687;28;20059;-64
2023/08/16 05:40:48;;;;;;;11.32;10.82;;;;;;;;;;5069037;28;20063;-64
2023/08/16 05:43:13;;;;;;;12.07;11.57;;;;;;;;;;5069430;28;20356;-64
2023/08/16 05:45:38;;;;;;;12.18;11.68;;;;;;;;;;5068509;28;20400;-64
2023/08/16 05:48:04;;;;;;;11.75;11.25;;;;;;;;;;5073563;28;20047;-64
2023/08/16 05:50:29;;;;;;;12.40;11.88;;;;;;;;;;5070697;28;20118;-64
2023/08/16 05:52:56;;;;;;;12.13;11.63;;;;;;;;;;5070803;28;20434;-65
2023/08/16 05:55:21;;;;;;;12.35;11.85;;;;;;;;;;5069763;28;20021;-64
2023/08/16 05:57:46;;;;;;;12.50;11.95;;;;;;;;;;5069276;28;20039;-65
2023/08/16 06:00:12;;;;;;;12.03;11.53;;;;;;;;;;5070861;28;20039;-65
2023/08/16 06:02:37;;;;;;;12.05;11.55;;;;;;;;;;5071817;28;20024;-65
2023/08/16 06:05:03;;;;;;;12.30;11.80;;;;;;;;;;5070390;28;20048;-64
2023/08/16 06:07:28;;;;;;;11.75;11.25;;;;;;;;;;5071434;28;20252;-64
2023/08/16 06:09:54;;;;;;;11.77;11.27;;;;;;;;;;5068204;28;20017;-64
2023/08/16 06:12:19;;;;;;;12.07;11.57;;;;;;;;;;5070141;28;20126;-64
2023/08/16 06:14:44;;;;;;;11.98;11.48;;;;;;;;;;5067252;28;20100;-62
2023/08/16 06:17:11;;;;;;;11.90;11.40;;;;;;;;;;5071666;28;20400;-65
2023/08/16 06:19:36;;;;;;;11.55;11.05;;;;;;;;;;5070564;28;20895;-64
2023/08/16 06:22:02;;;;;;;11.95;11.45;;;;;;;;;;5070292;28;20020;-64
2023/08/16 06:24:32;;;;;;;11.85;11.35;;;;;;;;;;5072349;28;20082;-64
2023/08/16 06:26:57;;;;;;;11.60;11.10;;;;;;;;;;5068774;28;20024;-64
2023/08/16 06:29:22;;;;;;;11.67;11.17;;;;;;;;;;5065750;28;20510;-63
2023/08/16 06:31:48;;;;;;;11.80;11.30;;;;;;;;;;5071308;28;20254;-64
2023/08/16 06:34:13;;;;;;;11.57;11.07;;;;;;;;;;5067426;28;20328;-63
2023/08/16 06:36:38;;;;;;;11.98;11.48;;;;;;;;;;5070108;28;20032;-64
2023/08/16 06:39:04;;;;;;;11.87;11.37;;;;;;;;;;5070404;28;20070;-64
2023/08/16 06:41:29;;;;;;;11.65;11.15;;;;;;;;;;5052070;28;20296;-64
2023/08/16 06:43:54;;;;;;;11.67;11.17;;;;;;;;;;5074466;28;20027;-66
2023/08/16 06:46:20;;;;;;;11.45;10.95;;;;;;;;;;5071408;28;20110;-64
2023/08/16 06:48:47;;;;;;;11.50;11.00;;;;;;;;;;5070583;28;20405;-64
2023/08/16 06:51:13;;;;;;;11.57;11.07;;;;;;;;;;5067781;28;20103;-64
2023/08/16 06:53:39;;;;;;;11.52;11.02;;;;;;;;;;5070240;28;20091;-64
2023/08/16 06:56:04;;;;;;;11.80;11.30;;;;;;;;;;5068976;28;20052;-65
2023/08/16 06:58:30;;;;;;;11.90;11.40;;;;;;;;;;5069910;28;20113;-64
2023/08/16 07:00:56;;;;;;;11.65;11.15;;;;;;;;;;5069925;28;20021;-64
2023/08/16 07:03:21;;;;;;;11.82;11.32;;;;;;;;;;5068792;28;20036;-63
2023/08/16 07:05:47;;;;;;;12.07;11.57;;;;;;;;;;5067215;28;20021;-63
2023/08/16 07:08:12;;;;;;;12.03;11.53;;;;;;;;;;5070570;28;20562;-63
2023/08/16 07:10:37;;;;;;;12.27;11.77;;;;;;;;;;5069192;28;20252;-64
2023/08/16 07:13:03;;;;;;;12.05;11.55;;;;;;;;;;5070246;28;20384;-65
2023/08/16 07:15:28;;;;;;;12.20;11.70;;;;;;;;;;5073107;28;20051;-64
2023/08/16 07:17:54;;;;;;;12.77;12.18;;;;;;;;;;5069626;28;20058;-65
2023/08/16 07:20:19;;;;;;;12.30;11.80;;;;;;;;;;5069721;28;20013;-65
2023/08/16 07:22:44;;;;;;;12.63;12.03;;;;;;;;;;5070621;28;20249;-65
2023/08/16 07:25:10;;;;;;;11.97;11.47;;;;;;;;;;5069094;28;20348;-64
2023/08/16 07:27:36;;;;;;;12.68;12.07;;;;;;;;;;5070377;28;20255;-64
2023/08/16 07:30:01;;;;;;;12.27;11.77;;;;;;;;;;5067582;28;20024;-64
2023/08/16 07:32:27;;;;;;;11.93;11.43;;;;;;;;;;5072629;28;20100;-64
2023/08/16 07:34:52;;;;;;;11.80;11.30;;;;;;;;;;5068585;28;20688;-64
2023/08/16 07:37:21;;;;;;;12.07;11.57;;;;;;;;;;5069883;28;20375;-64
2023/08/16 07:39:46;;;;;;;12.00;11.50;;;;;;;;;;5066484;28;20101;-65
2023/08/16 07:42:11;;;;;;;11.97;11.47;;;;;;;;;;5069389;28;20017;-65
2023/08/16 07:44:37;;;;;;;12.27;11.77;;;;;;;;;;5070512;28;20024;-65
2023/08/16 07:47:02;;;;;;;12.23;11.73;;;;;;;;;;5065771;28;20028;-65
2023/08/16 07:49:28;;;;;;;12.32;11.82;;;;;;;;;;5069772;28;20340;-65
2023/08/16 07:51:55;;;;;;;12.27;11.77;;;;;;;;;;5069058;28;20028;-65
2023/08/16 07:54:20;;;;;;;12.07;11.57;;;;;;;;;;5069568;28;20021;-64
2023/08/16 07:56:45;;;;;;;12.60;12.00;;;;;;;;;;5067177;28;20036;-65
2023/08/16 07:59:11;;;;;;;12.30;11.80;;;;;;;;;;5068768;28;20360;-64
2023/08/16 08:01:36;;;;;;;12.40;11.88;;;;;;;;;;5067258;28;20020;-63
2023/08/16 08:04:02;;;;;;;12.20;11.70;;;;;;;;;;5068986;28;20119;-64
2023/08/16 08:06:27;;;;;;;12.13;11.63;;;;;;;;;;5070425;28;20504;-65
2023/08/16 08:08:52;;;;;;;11.83;11.33;;;;;;;;;;5068988;28;20492;-64
2023/08/16 08:11:17;;;;;;;11.87;11.37;;;;;;;;;;5071343;28;20017;-64
2023/08/16 08:13:43;;;;;;;11.70;11.20;;;;;;;;;;5067835;28;20313;-65
2023/08/16 08:16:08;;;;;;;11.63;11.13;;;;;;;;;;5069034;28;20257;-64
2023/08/16 08:18:34;;;;;;;11.77;11.27;;;;;;;;;;5067421;28;20472;-65
2023/08/16 08:20:59;;;;;;;11.93;11.43;;;;;;;;;;5070126;28;20126;-64
2023/08/16 08:23:24;;;;;;;11.83;11.33;;;;;;;;;;5068555;28;20391;-65
2023/08/16 08:25:50;;;;;;;11.75;11.25;;;;;;;;;;5064724;28;20078;-65
2023/08/16 08:28:17;;;;;;;11.80;11.30;;;;;;;;;;5066196;28;20554;-64
2023/08/16 08:30:42;;;;;;;11.82;11.32;;;;;;;;;;5066576;28;20024;-64
2023/08/16 08:33:08;;;;;;;11.93;11.43;;;;;;;;;;5070075;28;20104;-65
2023/08/16 08:35:33;;;;;;;11.65;11.15;;;;;;;;;;5073039;28;20571;-64
2023/08/16 08:37:58;;;;;;;12.10;11.60;;;;;;;;;;5069221;28;20075;-64
2023/08/16 08:40:24;;;;;;;12.27;11.77;;;;;;;;;;5072590;28;20412;-64
2023/08/16 08:42:49;;;;;;;12.00;11.50;;;;;;;;;;5070180;28;20074;-64
2023/08/16 08:45:15;;;;;;;12.05;11.55;;;;;;;;;;5072290;28;20253;-63
2023/08/16 08:47:41;;;;;;;12.00;11.50;;;;;;;;;;5072275;28;20400;-65
2023/08/16 08:50:07;;;;;;;11.90;11.40;;;;;;;;;;5070747;28;20581;-64
2023/08/16 08:52:32;;;;;;;11.82;11.32;;;;;;;;;;5074160;28;20029;-64
2023/08/16 08:54:58;;;;;;;11.90;11.40;;;;;;;;;;5071988;28;20070;-64
2023/08/16 08:57:24;;;;;;;11.60;11.10;;;;;;;;;;5072411;28;20242;-66
2023/08/16 08:59:53;;;;;;;11.68;11.18;;;;;;;;;;5069368;28;20024;-64
2023/08/16 09:02:18;;;;;;;11.60;11.10;;;;;;;;;;5063722;28;20017;-64
2023/08/16 09:04:44;;;;;;;12.00;11.50;;;;;;;;;;5070646;28;20067;-64
2023/08/16 09:07:11;;;;;;;12.10;11.60;;;;;;;;;;5066688;28;20754;-64
2023/08/16 09:09:36;;;;;;;12.00;11.50;;;;;;;;;;5073508;28;20024;-63
2023/08/16 09:12:01;;;;;;;12.00;11.50;;;;;;;;;;5073540;28;20099;-63
2023/08/16 09:14:27;;;;;;;12.18;11.68;;;;;;;;;;5069142;28;20059;-65
2023/08/16 09:16:52;;;;;;;11.88;11.38;;;;;;;;;;5071035;28;20039;-64
2023/08/16 09:19:18;;;;;;;11.95;11.45;;;;;;;;;;5070702;28;20471;-64
2023/08/16 09:21:43;;;;;;;12.10;11.60;;;;;;;;;;5071165;28;20027;-65
2023/08/16 09:24:09;;;;;;;12.10;11.60;;;;;;;;;;5071198;28;20308;-64
2023/08/16 09:26:35;;;;;;;11.90;11.40;;;;;;;;;;5070743;28;20020;-64
2023/08/16 09:29:04;;;;;;;11.88;11.38;;;;;;;;;;5073971;28;20028;-64
2023/08/16 09:31:31;;;;;;;11.80;11.30;;;;;;;;;;5070288;28;20052;-64
2023/08/16 09:34:00;;;;;;;11.77;11.27;;;;;;;;;;5070595;28;20047;-64
2023/08/16 09:36:29;;;;;;;11.60;11.10;;;;;;;;;;5071730;28;20099;-64
2023/08/16 09:39:02;;;;;;;11.90;11.40;;;;;;;;;;5066176;28;20021;-65
2023/08/16 09:41:27;;;;;;;11.85;11.35;;;;;;;;;;5069574;28;20103;-65
2023/08/16 09:44:00;;;;;;;12.10;11.60;;;;;;;;;;5070549;28;20112;-64
2023/08/16 09:46:26;;;;;;;11.82;11.32;;;;;;;;;;5069495;28;20818;-64
2023/08/16 09:48:51;;;;;;;11.80;11.30;;;;;;;;;;5071316;28;20040;-63
2023/08/16 09:51:16;;;;;;;11.82;11.32;;;;;;;;;;5070448;28;20250;-64
2023/08/16 09:53:47;;;;;;;11.82;11.32;;;;;;;;;;5072178;28;20028;-63
2023/08/16 09:56:13;;;;;;;11.90;11.40;;;;;;;;;;5069961;28;20107;-65
2023/08/16 09:58:39;;;;;;;11.70;11.20;;;;;;;;;;5072897;28;20028;-64
2023/08/16 10:01:04;;;;;;;11.80;11.30;;;;;;;;;;5073965;28;20031;-64
2023/08/16 10:03:30;;;;;;;11.93;11.43;;;;;;;;;;5075370;28;20032;-64
2023/08/16 10:05:55;;;;;;;12.07;11.57;;;;;;;;;;5072366;28;20051;-63
2023/08/16 10:08:21;;;;;;;11.60;11.10;;;;;;;;;;5070999;28;20032;-64
2023/08/16 10:10:46;;;;;;;11.75;11.25;;;;;;;;;;5071016;28;20029;-64
2023/08/16 10:13:12;;;;;;;11.90;11.40;;;;;;;;;;5067804;28;20025;-64
2023/08/16 10:15:39;;;;;;;11.80;11.30;;;;;;;;;;5068403;28;20100;-64
2023/08/16 10:18:06;;;;;;;11.98;11.48;;;;;;;;;;5070887;28;20028;-64
2023/08/16 10:20:32;;;;;;;11.68;11.18;;;;;;;;;;5068962;28;20028;-63
2023/08/16 10:22:58;;;;;;;11.82;11.32;;;;;;;;;;5069398;28;20027;-64
2023/08/16 10:25:25;;;;;;;11.70;11.20;;;;;;;;;;5070585;28;20020;-64
2023/08/16 10:27:50;;;;;;;11.63;11.13;;;;;;;;;;5071979;28;20105;-64
2023/08/16 10:30:19;;;;;;;11.88;11.38;;;;;;;;;;5068466;28;20089;-65
2023/08/16 10:32:46;;;;;;;12.05;11.55;;;;;;;;;;5070326;28;20468;-65
2023/08/16 10:35:12;;;;;;;11.90;11.40;;;;;;;;;;5054382;28;20103;-65
2023/08/16 10:37:38;;;;;;;11.93;11.43;;;;;;;;;;5068905;28;20101;-65
2023/08/16 10:40:14;;;;;;;11.88;11.38;;;;;;;;;;5071207;28;20111;-64
2023/08/16 10:42:48;;;;;;;11.68;11.18;;;;;;;;;;5071160;28;20020;-65
2023/08/16 10:45:25;;;;;;;11.30;10.80;;;;;;;;;;5069808;28;20811;-65
2023/08/16 10:47:50;;;;;;;11.57;11.07;;;;;;;;;;5067282;28;20132;-64
2023/08/16 10:50:15;;;;;;;11.90;11.40;;;;;;;;;;5069373;28;20528;-64
2023/08/16 10:52:44;;;;;;;11.85;11.35;;;;;;;;;;5069512;28;20048;-64
2023/08/16 10:55:10;;;;;;;11.77;11.27;;;;;;;;;;5069402;28;20490;-64
2023/08/16 10:57:35;;;;;;;11.38;10.88;;;;;;;;;;5069142;28;20126;-65
2023/08/16 11:00:05;;;;;;;11.80;11.30;;;;;;;;;;5068007;28;20115;-64
2023/08/16 11:02:31;;;;;;;11.63;11.13;;;;;;;;;;5068024;28;20154;-64
2023/08/16 11:04:57;;;;;;;11.57;11.07;;;;;;;;;;5067236;28;20116;-64
2023/08/16 11:07:23;;;;;;;11.70;11.20;;;;;;;;;;5072201;28;20033;-65
2023/08/16 11:09:48;;;;;;;11.80;11.30;;;;;;;;;;5069230;28;20029;-65
2023/08/16 11:12:17;;;;;;;11.70;11.20;;;;;;;;;;5069958;28;20025;-65
2023/08/16 11:14:45;;;;;;;11.93;11.43;;;;;;;;;;5068202;28;20099;-64
2023/08/16 11:17:13;;;;;;;11.98;11.48;;;;;;;;;;5067931;28;20029;-64
2023/08/16 11:19:38;;;;;;;11.98;11.48;;;;;;;;;;5070008;28;20017;-65
2023/08/16 11:22:05;;;;;;;11.80;11.30;;;;;;;;;;5068451;28;20502;-63
2023/08/16 11:24:30;;;;;;;11.75;11.25;;;;;;;;;;5068431;28;20016;-63
2023/08/16 11:26:56;;;;;;;12.13;11.63;;;;;;;;;;5069287;28;20414;-64
2023/08/16 11:29:21;;;;;;;11.88;11.38;;;;;;;;;;5068073;28;20028;-63
2023/08/16 11:31:46;;;;;;;12.33;11.83;;;;;;;;;;5068270;28;20387;-64
2023/08/16 11:34:13;;;;;;;12.13;11.63;;;;;;;;;;5068548;28;20249;-64
2023/08/16 11:36:38;;;;;;;12.05;11.55;;;;;;;;;;5069285;28;20778;-64
2023/08/16 11:39:10;;;;;;;11.68;11.18;;;;;;;;;;5067615;28;20029;-64
2023/08/16 11:41:36;;;;;;;11.93;11.43;;;;;;;;;;5070302;28;20083;-65
2023/08/16 11:44:01;;;;;;;11.85;11.35;;;;;;;;;;5072196;28;20025;-65
2023/08/16 11:46:27;;;;;;;11.80;11.30;;;;;;;;;;5067690;28;20088;-65
2023/08/16 11:48:53;;;;;;;11.85;11.35;;;;;;;;;;5069811;28;20055;-63
2023/08/16 11:51:18;;;;;;;11.48;10.98;;;;;;;;;;5068631;28;20028;-65
2023/08/16 11:53:44;;;;;;;11.77;11.27;;;;;;;;;;5052290;28;20027;-65
2023/08/16 11:56:09;;;;;;;11.80;11.30;;;;;;;;;;5066788;28;20020;-65
2023/08/16 11:58:45;;;;;;;11.52;11.02;;;;;;;;;;5069286;28;20577;-65
2023/08/16 12:01:12;;;;;;;11.73;11.23;;;;;;;;;;5068027;28;20066;-64
2023/08/16 12:03:37;;;;;;;11.90;11.40;;;;;;;;;;5069454;28;20049;-64
2023/08/16 12:06:06;;;;;;;11.90;11.40;;;;;;;;;;5070185;28;20075;-66
2023/08/16 12:08:31;;;;;;;11.85;11.35;;;;;;;;;;5037991;28;20028;-64
2023/08/16 12:10:58;;;;;;;12.05;11.55;;;;;;;;;;5071573;28;20353;-65
2023/08/16 12:13:23;;;;;;;12.00;11.50;;;;;;;;;;5072293;28;20468;-65
2023/08/16 12:15:49;;;;;;;11.70;11.20;;;;;;;;;;5074285;28;20031;-64
2023/08/16 12:18:15;;;;;;;11.88;11.38;;;;;;;;;;5072635;28;20700;-64
2023/08/16 12:20:41;;;;;;;12.00;11.50;;;;;;;;;;5074302;28;20112;-66
2023/08/16 12:23:07;;;;;;;11.80;11.30;;;;;;;;;;5073838;28;20020;-64
2023/08/16 12:25:33;;;;;;;11.82;11.32;;;;;;;;;;5071090;28;20024;-65
2023/08/16 12:27:58;;;;;;;11.93;11.43;;;;;;;;;;5072968;28;20036;-65
2023/08/16 12:30:24;;;;;;;11.90;11.40;;;;;;;;;;5071344;28;20446;-64
2023/08/16 12:32:49;;;;;;;12.25;11.75;;;;;;;;;;5072085;28;20267;-64
2023/08/16 12:35:14;;;;;;;11.90;11.40;;;;;;;;;;5073147;28;20059;-65
2023/08/16 12:37:39;;;;;;;11.77;11.27;;;;;;;;;;5071940;28;20494;-64
2023/08/16 12:40:05;;;;;;;11.70;11.20;;;;;;;;;;5072557;28;20120;-64
2023/08/16 12:42:30;;;;;;;11.52;11.02;;;;;;;;;;5069726;28;20078;-65
2023/08/16 12:44:56;;;;;;;11.85;11.35;;;;;;;;;;5077206;28;20047;-64
2023/08/16 12:47:22;;;;;;;11.73;11.23;;;;;;;;;;5075572;28;20443;-64
2023/08/16 12:49:47;;;;;;;11.52;11.02;;;;;;;;;;5071635;28;20341;-64
2023/08/16 12:52:12;;;;;;;11.87;11.37;;;;;;;;;;5071755;28;20103;-64
2023/08/16 12:54:38;;;;;;;11.47;10.97;;;;;;;;;;5073463;28;20261;-65
2023/08/16 12:57:04;;;;;;;11.73;11.23;;;;;;;;;;5071976;28;20262;-65
2023/08/16 12:59:30;;;;;;;11.50;11.00;;;;;;;;;;5073271;28;20143;-63
2023/08/16 13:01:55;;;;;;;11.98;11.48;;;;;;;;;;5073472;28;20409;-65
2023/08/16 13:04:21;;;;;;;11.63;11.13;;;;;;;;;;5070793;28;20048;-64
2023/08/16 13:06:46;;;;;;;11.80;11.30;;;;;;;;;;5071241;28;20020;-66
2023/08/16 13:09:11;;;;;;;12.07;11.57;;;;;;;;;;5071797;28;20025;-64
2023/08/16 13:11:37;;;;;;;11.77;11.27;;;;;;;;;;5053807;28;20277;-64
2023/08/16 13:14:05;;;;;;;11.65;11.15;;;;;;;;;;5074133;28;20262;-64
2023/08/16 13:16:30;;;;;;;11.90;11.40;;;;;;;;;;5071627;28;20028;-65
2023/08/16 13:18:55;;;;;;;12.07;11.57;;;;;;;;;;5070961;28;20021;-64
2023/08/16 13:21:22;;;;;;;12.30;11.80;;;;;;;;;;5068467;28;20727;-64
2023/08/16 13:23:51;;;;;;;11.82;11.32;;;;;;;;;;5069079;28;20020;-64
2023/08/16 13:26:16;;;;;;;12.10;11.60;;;;;;;;;;5069237;28;20027;-64
2023/08/16 13:28:42;;;;;;;11.82;11.32;;;;;;;;;;5076398;28;20012;-64
2023/08/16 13:31:09;;;;;;;11.77;11.27;;;;;;;;;;5070414;28;20377;-64
2023/08/16 13:33:35;;;;;;;11.68;11.18;;;;;;;;;;5070939;28;20027;-65
2023/08/16 13:36:00;;;;;;;11.80;11.30;;;;;;;;;;5070010;28;20029;-64
2023/08/16 13:38:25;;;;;;;11.87;11.37;;;;;;;;;;5068587;28;20280;-64
2023/08/16 13:40:51;;;;;;;11.65;11.15;;;;;;;;;;5072463;28;20790;-64
2023/08/16 13:43:16;;;;;;;11.80;11.30;;;;;;;;;;5071619;28;21343;-66
2023/08/16 13:45:47;;;;;;;12.00;11.50;;;;;;;;;;5070113;28;20055;-64
2023/08/16 13:48:12;;;;;;;11.50;11.00;;;;;;;;;;5071694;28;20032;-64
2023/08/16 13:50:39;;;;;;;11.60;11.10;;;;;;;;;;5069174;28;20020;-64
2023/08/16 13:53:04;;;;;;;12.00;11.50;;;;;;;;;;5070222;28;20036;-64
2023/08/16 13:55:30;;;;;;;11.85;11.35;;;;;;;;;;5069341;28;20033;-64
2023/08/16 13:57:55;;;;;;;11.85;11.35;;;;;;;;;;5071291;28;20054;-63
2023/08/16 14:00:22;;;;;;;11.95;11.45;;;;;;;;;;5071041;28;20490;-64
2023/08/16 14:02:47;;;;;;;11.68;11.18;;;;;;;;;;5066524;28;20079;-64
2023/08/16 14:05:13;;;;;;;11.80;11.30;;;;;;;;;;5071219;28;20399;-64
2023/08/16 14:07:42;;;;;;;11.80;11.30;;;;;;;;;;5071932;28;20023;-64
2023/08/16 14:10:07;;;;;;;11.60;11.10;;;;;;;;;;5068762;28;20103;-66